Flight Track Log - Related Links

Times and Time Zones

All times are in EST time to prevent confusion due to time zone crossing. See the WBR2634 flight status page for this flight to view local times or setup timezone preferences in your user account.

Time Position Orientation Groundspeed Altitude Reporting Facility
EST Latitude Longitude Course Direction KTS MPH feet Rate Location/Type
Tue 05:35:33 PM 40.7672 -91.0744 79° East 125 144 2,700  Level Chicago Center
Tue 05:36:35 PM 40.7758 -91.0381 73° East 106 122 3,700 960 Climbing Chicago Center
Tue 05:37:00 PM 40.9003 -90.8259 73° East  Level Estimated
Tue 05:37:38 PM 40.7897 -90.9872 70° East 115 132 4,700  Level Chicago Center
Tue 05:38:00 PM 40.9084 -90.7707 79° East  Level FlightAware Approximate
Tue 05:38:40 PM 40.8008 -90.9417 72° East 127 146 5,500  Level Chicago Center
Tue 05:39:00 PM 40.9164 -90.7154 79° East  Level FlightAware Approximate
Tue 05:39:42 PM 40.8142 -90.8942 70° East 135 155 6,300  Level Chicago Center
Tue 05:40:00 PM 40.9245 -90.6602 79° East  Level FlightAware Approximate
Tue 05:40:44 PM 40.8225 -90.8439 78° East 138 159 7,100  Level Chicago Center
Tue 05:41:46 PM 40.8361 -90.7947 70° East 140 161 7,900 677 Climbing Chicago Center
Tue 05:42:48 PM 40.8519 -90.7436 68° East 145 167 8,500 532 Climbing Chicago Center
Tue 05:43:50 PM 40.8672 -90.6800 72° East 152 175 9,000 290 Climbing Chicago Center
Tue 05:44:52 PM 40.8753 -90.6203 80° East 163 188 9,100  Climbing Chicago Center
Tue 05:45:54 PM 40.8869 -90.5572 76° East 173 199 9,000 -48 Descending Chicago Center
Tue 05:46:56 PM 40.9011 -90.4981 72° East 169 194 9,000  Level Chicago Center
Tue 05:47:58 PM 40.9225 -90.4467 61° Northeast 161 185 9,000  Level Chicago Center
Tue 05:49:01 PM 40.9408 -90.3958 64° Northeast 154 177 9,000  Level Chicago Center
Tue 05:50:03 PM 40.9639 -90.3342 64° Northeast 154 177 9,000  Level Chicago Center
Tue 05:51:05 PM 40.9811 -90.2836 66° East 152 175 9,000  Level Chicago Center
Tue 05:52:07 PM 40.9911 -90.2272 77° East 157 181 9,000  Level Chicago Center
Tue 05:53:09 PM 41.0047 -90.1736 71° East 154 177 9,000  Level Chicago Center
Tue 05:54:11 PM 41.0139 -90.1167 78° East 156 180 9,000  Level Chicago Center
Tue 05:55:13 PM 41.0261 -90.0608 74° East 158 182 9,000  Level Chicago Center
Tue 05:56:15 PM 41.0364 -90.0050 76° East 156 180 9,000  Level Chicago Center
Tue 05:57:17 PM 41.0522 -89.9386 72° East 157 181 9,000  Level Chicago Center
Tue 05:58:19 PM 41.0650 -89.8842 73° East 155 178 9,000  Level Chicago Center
Tue 05:59:22 PM 41.0783 -89.8289 72° East 156 180 9,000  Level Chicago Center
Tue 06:00:24 PM 41.0925 -89.7747 71° East 155 178 9,000  Level Chicago Center
Tue 06:01:26 PM 41.1086 -89.7208 68° East 156 180 9,000  Level Chicago Center
Tue 06:02:28 PM 41.1239 -89.6686 69° East 154 177 9,000  Level Chicago Center
Tue 06:03:30 PM 41.1397 -89.6164 68° East 153 176 9,000  Level Chicago Center
Tue 06:04:32 PM 41.1592 -89.5542 67° East 152 175 9,000  Level Chicago Center
Tue 06:05:34 PM 41.1833 -89.5103 54° Northeast 148 170 9,000  Level Chicago Center
Tue 06:06:36 PM 41.2072 -89.4658 54° Northeast 148 170 9,000  Level Chicago Center
Tue 06:07:38 PM 41.2294 -89.4186 58° Northeast 150 173 9,000  Level Chicago Center
Tue 06:08:40 PM 41.2483 -89.3706 62° Northeast 148 170 9,000  Level Chicago Center
Tue 06:09:43 PM 41.2675 -89.3197 63° Northeast 151 174 9,000  Level Chicago Center
Tue 06:10:45 PM 41.2914 -89.2631 61° Northeast 149 171 9,000  Level Chicago Center
Tue 06:11:47 PM 41.3122 -89.2161 59° Northeast 148 170 9,000  Level Chicago Center
Tue 06:12:49 PM 41.3281 -89.1681 66° East 149 171 9,000  Level Chicago Center
Tue 06:13:51 PM 41.3494 -89.1208 59° Northeast 150 173 9,000  Level Chicago Center
Tue 06:14:53 PM 41.3744 -89.0636 60° Northeast 149 171 9,000  Level Chicago Center
Tue 06:15:55 PM 41.3903 -89.0122 68° East 150 173 9,000  Level Chicago Center
Tue 06:16:58 PM 41.4069 -88.9600 67° East 154 177 9,000 -145 Level Chicago Center
Tue 06:17:59 PM 41.4275 -88.9108 61° Northeast 154 177 8,700 -195 Descending Chicago Center
Tue 06:19:01 PM 41.4503 -88.8592 60° Northeast 162 186 8,600 -192 Descending Chicago Center
Tue 06:20:04 PM 41.4778 -88.7989 59° Northeast 160 184 8,300 -240 Descending Chicago Center
Tue 06:21:06 PM 41.4986 -88.7464 62° Northeast 160 184 8,100 -145 Descending Chicago Center
Tue 06:22:08 PM 41.5158 -88.6919 67° East 159 183 8,000 -48 Descending Chicago Center
Tue 06:23:10 PM 41.5364 -88.6392 62° Northeast 160 184 8,000 -48 Level Chicago Center
Tue 06:24:12 PM 41.5581 -88.5908 59° Northeast 153 176 7,900 -48 Descending Chicago Center
Tue 06:25:14 PM 41.5767 -88.5406 64° Northeast 152 175 7,900 48 Level Chicago Center
Tue 06:26:16 PM 41.6039 -88.4817 58° Northeast 154 177 8,000 48 Climbing Chicago Center
Tue 06:27:18 PM 41.6311 -88.4403 49° Northeast 152 175 8,000  Level Chicago Center
Tue 06:28:20 PM 41.6619 -88.4017 43° Northeast 150 173 8,000  Level Chicago Center
Tue 06:29:22 PM 41.6911 -88.3614 46° Northeast 150 173 8,000  Level Chicago Center
Tue 06:30:25 PM 41.7183 -88.3183 50° Northeast 151 174 8,000  Level Chicago Center
Tue 06:31:27 PM 41.7469 -88.2783 46° Northeast 150 173 8,000  Level Chicago Center
Tue 06:32:29 PM 41.7817 -88.2283 47° Northeast 152 175 8,000  Level Chicago Center
Tue 06:33:31 PM 41.8103 -88.1861 48° Northeast 153 176 8,000  Level Chicago Center
Tue 06:34:33 PM 41.8378 -88.1406 51° Northeast 155 178 8,000  Level Chicago Center
Tue 06:35:35 PM 41.8650 -88.0911 54° Northeast 161 185 8,000 -55 Level Chicago Center
Tue 06:36:23 PM 41.8833 -88.0500 59° Northeast 168 193 7,900  Descending Chicago TRACON
Tue 06:37:23 PM 41.9167 -87.9833 56° Northeast 165 190 8,000 53 Climbing Chicago TRACON
Tue 06:38:17 PM 41.9333 -87.9333 66° East 175 201 8,000 -53 Level Chicago TRACON
Tue 06:39:17 PM 41.9167 -87.8833 114° Southeast 170 196 7,900 -450 Descending Chicago TRACON
Tue 06:40:17 PM 41.9000 -87.8167 109° East 173 199 7,100 -900 Descending Chicago TRACON
Tue 06:41:17 PM 41.8833 -87.7500 109° East 176 203 6,100 -1,050 Descending Chicago TRACON
Tue 06:42:17 PM 41.9000 -87.6833 71° East 173 199 5,000 -1,095 Descending Chicago TRACON
Tue 06:43:23 PM 41.9333 -87.6667 20° North 176 203 3,800 -843 Descending Chicago TRACON
Tue 06:44:18 PM 41.9500 -87.7167 294° West 180 207 3,300 -678 Descending Chicago TRACON
Tue 06:45:18 PM 41.9667 -87.7833 289° West 170 196 2,500 -905 Descending Chicago TRACON
Tue 06:46:24 PM 41.9667 -87.8500 270° West 158 182 1,400 -1,000 Descending Chicago TRACON
Tue 06:48:00 PM 41.9798 -87.9000 180° South  Level FlightAware Approximate

Login

Don't have an account? Register now (free) for customized features, flight alerts, and more!